createdAt,value
2023-04-01T00:00:26.389Z,989.39
2023-04-01T00:01:26.415Z,989.39
2023-04-01T00:02:26.517Z,989.41
2023-04-01T00:03:26.633Z,989.37
2023-04-01T00:04:26.348Z,989.36
2023-04-01T00:05:26.497Z,989.42
2023-04-01T00:06:26.321Z,989.46
2023-04-01T00:07:26.311Z,989.31
2023-04-01T00:08:26.310Z,989.44
2023-04-01T00:09:26.284Z,989.40
2023-04-01T00:10:26.270Z,989.46
2023-04-01T00:11:26.318Z,989.44
2023-04-01T00:12:27.235Z,989.47
2023-04-01T00:13:26.239Z,989.41
2023-04-01T00:14:26.235Z,989.45
2023-04-01T00:15:26.225Z,989.42
2023-04-01T00:16:26.220Z,989.41
2023-04-01T00:17:26.257Z,989.43
2023-04-01T00:18:26.238Z,989.39
2023-04-01T00:19:26.189Z,989.46
2023-04-01T00:20:26.168Z,989.43
2023-04-01T00:21:26.172Z,989.42
2023-04-01T00:22:26.146Z,989.40
2023-04-01T00:23:26.155Z,989.43
2023-04-01T00:24:26.159Z,989.43
2023-04-01T00:25:26.112Z,989.41
2023-04-01T00:26:26.098Z,989.48
2023-04-01T00:27:26.111Z,989.49
2023-04-01T00:28:26.083Z,989.48
2023-04-01T00:29:26.110Z,989.41
2023-04-01T00:30:26.077Z,989.43
2023-04-01T00:31:26.052Z,989.48
2023-04-01T00:32:26.060Z,989.45
2023-04-01T00:33:26.022Z,989.47
2023-04-01T00:34:26.051Z,989.45
2023-04-01T00:35:26.020Z,989.38
2023-04-01T00:36:25.992Z,989.45
2023-04-01T00:37:25.998Z,989.37
2023-04-01T00:38:25.969Z,989.37
2023-04-01T00:39:25.974Z,989.40
2023-04-01T00:40:26.004Z,989.38
2023-04-01T00:41:25.944Z,989.44
2023-04-01T00:42:25.973Z,989.46
2023-04-01T00:43:25.912Z,989.35
2023-04-01T00:44:25.942Z,989.42
2023-04-01T00:45:25.910Z,989.39
2023-04-01T00:46:25.958Z,989.43
2023-04-01T00:47:25.871Z,989.28
2023-04-01T00:48:25.879Z,989.36
2023-04-01T00:49:25.856Z,989.39
2023-04-01T00:50:25.856Z,989.32
2023-04-01T00:51:25.894Z,989.34
2023-04-01T00:52:25.842Z,989.38
2023-04-01T00:53:25.811Z,989.29
2023-04-01T00:54:25.802Z,989.37
2023-04-01T00:55:26.790Z,989.29
2023-04-01T00:56:25.789Z,989.26
2023-04-01T00:57:25.797Z,989.34
2023-04-01T00:58:25.763Z,989.34
2023-04-01T00:59:25.748Z,989.33
2023-04-01T01:00:25.783Z,989.33
2023-04-01T01:01:26.891Z,989.37
2023-04-01T01:02:25.853Z,989.28
2023-04-01T01:03:25.793Z,989.27
2023-04-01T01:04:26.391Z,989.30
2023-04-01T01:05:29.389Z,989.32
2023-04-01T01:06:25.668Z,989.33
2023-04-01T01:07:25.682Z,989.29
2023-04-01T01:08:25.655Z,989.23
2023-04-01T01:09:25.668Z,989.28
2023-04-01T01:10:25.676Z,989.32
2023-04-01T01:11:26.672Z,989.20
2023-04-01T01:12:25.591Z,989.30
2023-04-01T01:13:25.597Z,989.32
2023-04-01T01:14:25.569Z,989.22
2023-04-01T01:15:26.520Z,989.26
2023-04-01T01:16:25.645Z,989.22
2023-04-01T01:17:25.606Z,989.30
2023-04-01T01:18:25.519Z,989.21
2023-04-01T01:19:25.517Z,989.28
2023-04-01T01:20:26.880Z,989.25
2023-04-01T01:21:25.486Z,989.25
2023-04-01T01:22:25.550Z,989.30
2023-04-01T01:23:25.468Z,989.32
2023-04-01T01:24:25.457Z,989.23
2023-04-01T01:25:25.468Z,989.25
2023-04-01T01:26:25.444Z,989.23
2023-04-01T01:27:25.540Z,989.20
2023-04-01T01:28:25.441Z,989.18
2023-04-01T01:29:25.396Z,989.17
2023-04-01T01:30:25.396Z,989.19
2023-04-01T01:31:25.530Z,989.18
2023-04-01T01:32:25.751Z,989.22
2023-04-01T01:33:25.392Z,989.20
2023-04-01T01:34:25.369Z,989.15
2023-04-01T01:35:25.329Z,989.19
2023-04-01T01:36:25.344Z,989.13
2023-04-01T01:37:25.313Z,989.18
2023-04-01T01:38:25.363Z,989.20
2023-04-01T01:39:25.283Z,989.12
2023-04-01T01:40:26.289Z,989.10
2023-04-01T01:41:25.286Z,989.14
2023-04-01T01:42:25.310Z,989.07
2023-04-01T01:43:25.333Z,989.17
2023-04-01T01:44:25.237Z,989.07
2023-04-01T01:45:25.294Z,989.10
2023-04-01T01:46:25.276Z,989.12
2023-04-01T01:47:25.273Z,989.11
2023-04-01T01:48:25.219Z,989.10
2023-04-01T01:49:25.191Z,989.09
2023-04-01T01:50:25.212Z,989.12
2023-04-01T01:51:25.163Z,989.11
2023-04-01T01:52:25.153Z,989.07
2023-04-01T01:53:25.146Z,989.13
2023-04-01T01:54:25.147Z,989.13
2023-04-01T01:55:25.136Z,989.11
2023-04-01T01:56:25.106Z,989.11
2023-04-01T01:57:25.150Z,989.13
2023-04-01T01:58:25.085Z,989.04
2023-04-01T01:59:25.066Z,989.14
2023-04-01T02:00:25.227Z,989.16
2023-04-01T02:01:26.070Z,989.18
2023-04-01T02:02:25.041Z,989.18
2023-04-01T02:03:25.076Z,989.15
2023-04-01T02:04:25.079Z,989.24
2023-04-01T02:05:25.797Z,989.15
2023-04-01T02:06:25.004Z,989.12
2023-04-01T02:07:24.999Z,989.12
2023-04-01T02:08:25.213Z,989.13
2023-04-01T02:09:24.988Z,989.23
2023-04-01T02:10:24.949Z,989.19
2023-04-01T02:11:26.430Z,989.15
2023-04-01T02:12:24.972Z,989.26
2023-04-01T02:13:24.916Z,989.24
2023-04-01T02:14:24.913Z,989.26
2023-04-01T02:15:24.891Z,989.24
2023-04-01T02:16:24.958Z,989.24
2023-04-01T02:17:24.895Z,989.27
2023-04-01T02:18:24.897Z,989.22
2023-04-01T02:19:24.846Z,989.25
2023-04-01T02:20:24.882Z,989.19
2023-04-01T02:21:25.785Z,989.24
2023-04-01T02:22:24.877Z,989.30
2023-04-01T02:23:24.809Z,989.28
2023-04-01T02:24:24.885Z,989.28
2023-04-01T02:25:24.779Z,989.27
2023-04-01T02:26:24.799Z,989.26
2023-04-01T02:27:24.772Z,989.30
2023-04-01T02:28:24.756Z,989.20
2023-04-01T02:29:24.768Z,989.32
2023-04-01T02:30:24.764Z,989.19
2023-04-01T02:31:24.875Z,989.20
2023-04-01T02:32:24.760Z,989.23
2023-04-01T02:33:24.678Z,989.18
2023-04-01T02:34:24.692Z,989.26
2023-04-01T02:35:24.675Z,989.18
2023-04-01T02:36:24.709Z,989.20
2023-04-01T02:37:24.646Z,989.26
2023-04-01T02:38:24.675Z,989.27
2023-04-01T02:39:24.859Z,989.33
2023-04-01T02:40:25.260Z,989.33
2023-04-01T02:41:26.065Z,989.41
2023-04-01T02:42:25.405Z,989.40
2023-04-01T02:43:24.655Z,989.42
2023-04-01T02:44:26.028Z,989.34
2023-04-01T02:45:24.585Z,989.37
2023-04-01T02:46:24.606Z,989.29
2023-04-01T02:47:24.568Z,989.28
2023-04-01T02:48:24.539Z,989.32
2023-04-01T02:49:24.660Z,989.32
2023-04-01T02:50:24.827Z,989.43
2023-04-01T02:51:25.484Z,989.40
2023-04-01T02:52:24.872Z,989.29
2023-04-01T02:53:25.343Z,989.33
2023-04-01T02:54:24.474Z,989.36
2023-04-01T02:55:24.490Z,989.32
2023-04-01T02:56:24.444Z,989.27
2023-04-01T02:57:24.440Z,989.35
2023-04-01T02:58:24.419Z,989.34
2023-04-01T02:59:24.537Z,989.34
2023-04-01T03:00:25.854Z,989.37
2023-04-01T03:01:25.264Z,989.32
2023-04-01T03:02:25.909Z,989.29
2023-04-01T03:03:24.481Z,989.30
2023-04-01T03:04:25.808Z,989.26
2023-04-01T03:05:25.555Z,989.33
2023-04-01T03:06:24.347Z,989.35
2023-04-01T03:07:24.328Z,989.36
2023-04-01T03:08:24.307Z,989.41
2023-04-01T03:09:24.321Z,989.37
2023-04-01T03:10:24.291Z,989.34
2023-04-01T03:11:24.965Z,989.39
2023-04-01T03:12:24.736Z,989.43
2023-04-01T03:13:25.268Z,989.44
2023-04-01T03:14:24.259Z,989.51
2023-04-01T03:15:24.271Z,989.46
2023-04-01T03:16:24.287Z,989.43
2023-04-01T03:17:24.258Z,989.49
2023-04-01T03:18:24.203Z,989.48
2023-04-01T03:19:24.205Z,989.52
2023-04-01T03:20:24.567Z,989.48
2023-04-01T03:21:25.646Z,989.51
2023-04-01T03:22:24.528Z,989.51
2023-04-01T03:23:24.164Z,989.48
2023-04-01T03:24:24.144Z,989.51
2023-04-01T03:25:24.113Z,989.57
2023-04-01T03:26:24.141Z,989.58
2023-04-01T03:27:24.157Z,989.58
2023-04-01T03:28:24.111Z,989.57
2023-04-01T03:29:24.208Z,989.54
2023-04-01T03:30:24.094Z,989.55
2023-04-01T03:31:24.235Z,989.56
2023-04-01T03:32:24.093Z,989.54
2023-04-01T03:33:24.030Z,989.61
2023-04-01T03:34:24.041Z,989.60
2023-04-01T03:35:24.034Z,989.62
2023-04-01T03:36:24.073Z,989.60
2023-04-01T03:37:24.015Z,989.61
2023-04-01T03:38:23.985Z,989.65
2023-04-01T03:39:23.963Z,989.61
2023-04-01T03:40:23.986Z,989.67
2023-04-01T03:41:23.975Z,989.63
2023-04-01T03:42:24.777Z,989.62
2023-04-01T03:43:24.008Z,989.61
2023-04-01T03:44:24.754Z,989.66
2023-04-01T03:45:23.916Z,989.63
2023-04-01T03:46:23.957Z,989.64
2023-04-01T03:47:23.932Z,989.68
2023-04-01T03:48:23.865Z,989.61
2023-04-01T03:49:24.833Z,989.61
2023-04-01T03:50:23.894Z,989.59
2023-04-01T03:51:23.865Z,989.68
2023-04-01T03:52:23.835Z,989.69
2023-04-01T03:53:23.818Z,989.67
2023-04-01T03:54:24.181Z,989.61
2023-04-01T03:55:23.804Z,989.67
2023-04-01T03:56:23.827Z,989.58
2023-04-01T03:57:23.938Z,989.64
2023-04-01T03:58:23.790Z,989.65
2023-04-01T03:59:23.787Z,989.62
2023-04-01T04:00:23.783Z,989.70
2023-04-01T04:01:25.187Z,989.60
2023-04-01T04:02:24.286Z,989.65
2023-04-01T04:03:23.795Z,989.59
2023-04-01T04:04:23.776Z,989.63
2023-04-01T04:05:23.691Z,989.67
2023-04-01T04:06:23.738Z,989.63
2023-04-01T04:07:23.692Z,989.66
2023-04-01T04:08:23.885Z,989.59
2023-04-01T04:09:23.650Z,989.67
2023-04-01T04:10:23.662Z,989.64
2023-04-01T04:11:25.082Z,989.69
2023-04-01T04:12:23.609Z,989.70
2023-04-01T04:13:23.675Z,989.66
2023-04-01T04:14:23.603Z,989.59
2023-04-01T04:15:23.591Z,989.70
2023-04-01T04:16:23.683Z,989.70
2023-04-01T04:17:23.664Z,989.68
2023-04-01T04:18:23.536Z,989.75
2023-04-01T04:19:23.584Z,989.72
2023-04-01T04:20:23.543Z,989.74
2023-04-01T04:21:24.468Z,989.75
2023-04-01T04:22:23.526Z,989.75
2023-04-01T04:23:23.518Z,989.69
2023-04-01T04:24:23.477Z,989.81
2023-04-01T04:25:23.486Z,989.73
2023-04-01T04:26:24.936Z,989.78
2023-04-01T04:27:23.435Z,989.71
2023-04-01T04:28:23.446Z,989.78
2023-04-01T04:29:23.424Z,989.84
2023-04-01T04:30:24.406Z,989.84
2023-04-01T04:31:24.413Z,989.85
2023-04-01T04:32:23.491Z,989.77
2023-04-01T04:33:23.410Z,989.77
2023-04-01T04:34:23.389Z,989.80
2023-04-01T04:35:23.383Z,989.80
2023-04-01T04:36:23.388Z,989.82
2023-04-01T04:37:23.328Z,989.85
2023-04-01T04:38:23.308Z,989.80
2023-04-01T04:39:23.313Z,989.85
2023-04-01T04:40:25.302Z,989.83
2023-04-01T04:41:23.460Z,989.81
2023-04-01T04:42:23.321Z,989.87
2023-04-01T04:43:23.272Z,989.85
2023-04-01T04:44:23.270Z,989.86
2023-04-01T04:45:23.238Z,989.83
2023-04-01T04:46:23.270Z,989.82
2023-04-01T04:47:23.245Z,989.84
2023-04-01T04:48:23.219Z,989.85
2023-04-01T04:49:23.229Z,989.85
2023-04-01T04:50:24.137Z,989.90
2023-04-01T04:51:23.171Z,989.89
2023-04-01T04:52:23.162Z,989.85
2023-04-01T04:53:24.640Z,989.89
2023-04-01T04:54:23.163Z,989.84
2023-04-01T04:55:23.174Z,989.88
2023-04-01T04:56:23.108Z,989.85
2023-04-01T04:57:23.176Z,989.92
2023-04-01T04:58:23.112Z,989.89
2023-04-01T04:59:23.108Z,989.89
2023-04-01T05:00:24.081Z,989.93
2023-04-01T05:01:24.017Z,989.92
2023-04-01T05:02:24.590Z,989.95
2023-04-01T05:03:23.186Z,989.97
2023-04-01T05:04:23.024Z,990.00
2023-04-01T05:05:23.103Z,989.97
2023-04-01T05:06:23.592Z,989.95
2023-04-01T05:07:23.000Z,989.96
2023-04-01T05:08:23.102Z,990.04
2023-04-01T05:09:23.003Z,989.97
2023-04-01T05:10:22.987Z,990.01
2023-04-01T05:11:23.417Z,990.03
2023-04-01T05:12:22.980Z,989.96
2023-04-01T05:13:22.935Z,989.98
2023-04-01T05:14:22.925Z,990.02
2023-04-01T05:15:22.922Z,990.02
2023-04-01T05:16:22.917Z,990.07
2023-04-01T05:17:23.010Z,990.02
2023-04-01T05:18:22.884Z,990.05
2023-04-01T05:19:22.865Z,990.02
2023-04-01T05:20:22.865Z,990.10
2023-04-01T05:21:22.840Z,990.04
2023-04-01T05:22:22.876Z,990.02
2023-04-01T05:23:22.834Z,990.06
2023-04-01T05:24:22.806Z,990.02
2023-04-01T05:25:22.790Z,990.08
2023-04-01T05:26:22.801Z,990.06
2023-04-01T05:27:22.822Z,990.14
2023-04-01T05:28:22.791Z,990.08
2023-04-01T05:29:22.778Z,990.15
2023-04-01T05:30:23.514Z,990.11
2023-04-01T05:31:22.795Z,990.12
2023-04-01T05:32:22.875Z,990.20
2023-04-01T05:33:23.738Z,990.14
2023-04-01T05:34:22.708Z,990.18
2023-04-01T05:35:22.807Z,990.12
2023-04-01T05:36:22.699Z,990.17
2023-04-01T05:37:22.675Z,990.15
2023-04-01T05:38:24.172Z,990.15
2023-04-01T05:39:22.653Z,990.11
2023-04-01T05:40:22.643Z,990.11
2023-04-01T05:41:23.625Z,990.13
2023-04-01T05:42:22.594Z,990.22
2023-04-01T05:43:22.608Z,990.14
2023-04-01T05:44:22.579Z,990.18
2023-04-01T05:45:22.623Z,990.21
2023-04-01T05:46:22.622Z,990.26
2023-04-01T05:47:22.626Z,990.18
2023-04-01T05:48:22.590Z,990.25
2023-04-01T05:49:22.528Z,990.31
2023-04-01T05:50:22.533Z,990.26
2023-04-01T05:51:22.531Z,990.29
2023-04-01T05:52:22.493Z,990.22
2023-04-01T05:53:22.491Z,990.30
2023-04-01T05:54:22.491Z,990.23
2023-04-01T05:55:22.492Z,990.32
2023-04-01T05:56:22.492Z,990.31
2023-04-01T05:57:22.469Z,990.32
2023-04-01T05:58:22.481Z,990.34
2023-04-01T05:59:22.498Z,990.32
2023-04-01T06:00:22.421Z,990.39
2023-04-01T06:01:22.508Z,990.35
2023-04-01T06:02:22.452Z,990.31
2023-04-01T06:03:22.496Z,990.37
2023-04-01T06:04:23.925Z,990.35
2023-04-01T06:05:22.378Z,990.31
2023-04-01T06:06:22.406Z,990.36
2023-04-01T06:07:22.343Z,990.34
2023-04-01T06:08:22.339Z,990.39
2023-04-01T06:09:22.305Z,990.42
2023-04-01T06:10:22.308Z,990.31
2023-04-01T06:11:22.289Z,990.34
2023-04-01T06:12:22.287Z,990.37
2023-04-01T06:13:22.272Z,990.44
2023-04-01T06:14:22.290Z,990.42
2023-04-01T06:15:22.274Z,990.40
2023-04-01T06:16:22.271Z,990.47
2023-04-01T06:17:22.249Z,990.39
2023-04-01T06:18:22.211Z,990.43
2023-04-01T06:19:22.204Z,990.43
2023-04-01T06:20:23.167Z,990.45
2023-04-01T06:21:22.179Z,990.44
2023-04-01T06:22:22.168Z,990.48
2023-04-01T06:23:22.199Z,990.48
2023-04-01T06:24:22.122Z,990.48
2023-04-01T06:25:22.169Z,990.44
2023-04-01T06:26:22.108Z,990.52
2023-04-01T06:27:22.140Z,990.50
2023-04-01T06:28:22.112Z,990.50
2023-04-01T06:29:22.118Z,990.49
2023-04-01T06:30:22.083Z,990.48
2023-04-01T06:31:23.654Z,990.45
2023-04-01T06:32:22.267Z,990.52
2023-04-01T06:33:22.063Z,990.49
2023-04-01T06:34:22.054Z,990.49
2023-04-01T06:35:22.025Z,990.56
2023-04-01T06:36:22.024Z,990.56
2023-04-01T06:37:22.023Z,990.50
2023-04-01T06:38:21.967Z,990.52
2023-04-01T06:39:21.987Z,990.55
2023-04-01T06:40:22.006Z,990.58
2023-04-01T06:41:21.976Z,990.59
2023-04-01T06:42:21.957Z,990.55
2023-04-01T06:43:21.927Z,990.57
2023-04-01T06:44:21.924Z,990.59
2023-04-01T06:45:21.924Z,990.65
2023-04-01T06:46:21.972Z,990.68
2023-04-01T06:47:22.060Z,990.58
2023-04-01T06:48:21.899Z,990.58
2023-04-01T06:49:21.863Z,990.69
2023-04-01T06:50:21.877Z,990.59
2023-04-01T06:51:23.352Z,990.60
2023-04-01T06:52:21.888Z,990.60
2023-04-01T06:53:22.813Z,990.65
2023-04-01T06:54:21.842Z,990.60
2023-04-01T06:55:22.902Z,990.69
2023-04-01T06:56:21.800Z,990.66
2023-04-01T06:57:21.860Z,990.69
2023-04-01T06:58:21.763Z,990.76
2023-04-01T06:59:22.783Z,990.70
2023-04-01T07:00:21.767Z,990.73
2023-04-01T07:01:22.764Z,990.74
2023-04-01T07:02:21.740Z,990.72
2023-04-01T07:03:21.725Z,990.74
2023-04-01T07:04:21.817Z,990.75
2023-04-01T07:05:23.173Z,990.74
2023-04-01T07:06:21.793Z,990.83
2023-04-01T07:07:22.699Z,990.78
2023-04-01T07:08:21.663Z,990.77
2023-04-01T07:09:21.648Z,990.78
2023-04-01T07:10:21.677Z,990.79
2023-04-01T07:11:21.658Z,990.78
2023-04-01T07:12:21.619Z,990.77
2023-04-01T07:13:21.601Z,990.82
2023-04-01T07:14:21.587Z,990.88
2023-04-01T07:15:21.579Z,990.79
2023-04-01T07:16:21.639Z,990.84
2023-04-01T07:17:21.658Z,990.85
2023-04-01T07:18:21.607Z,990.93
2023-04-01T07:19:23.005Z,990.86
2023-04-01T07:20:21.607Z,990.82
2023-04-01T07:21:22.489Z,990.85
2023-04-01T07:22:21.494Z,990.91
2023-04-01T07:23:21.506Z,990.86
2023-04-01T07:24:21.491Z,990.89
2023-04-01T07:25:21.462Z,990.93
2023-04-01T07:26:21.447Z,990.88
2023-04-01T07:27:21.541Z,990.97
2023-04-01T07:28:21.466Z,990.96
2023-04-01T07:29:21.413Z,990.99
2023-04-01T07:30:21.468Z,991.01
2023-04-01T07:31:21.417Z,991.01
2023-04-01T07:32:21.430Z,991.04
2023-04-01T07:33:22.371Z,991.03
2023-04-01T07:34:21.396Z,991.01
2023-04-01T07:35:21.388Z,991.03
2023-04-01T07:36:21.384Z,991.04
2023-04-01T07:37:21.319Z,991.03
2023-04-01T07:38:21.354Z,991.06
2023-04-01T07:39:21.311Z,991.11
2023-04-01T07:40:21.333Z,991.08
2023-04-01T07:41:21.490Z,991.08
2023-04-01T07:42:21.327Z,991.08
2023-04-01T07:43:21.258Z,991.07
2023-04-01T07:44:21.257Z,991.14
2023-04-01T07:45:21.241Z,991.14
2023-04-01T07:46:22.230Z,991.15
2023-04-01T07:47:21.220Z,991.11
2023-04-01T07:48:21.224Z,991.14
2023-04-01T07:49:21.266Z,991.19
2023-04-01T07:50:21.190Z,991.29
2023-04-01T07:51:21.172Z,991.10
2023-04-01T07:52:21.187Z,991.27
2023-04-01T07:53:21.196Z,991.25
2023-04-01T07:54:21.134Z,991.26
2023-04-01T07:55:21.133Z,991.27
2023-04-01T07:56:21.130Z,991.37
2023-04-01T07:57:21.153Z,991.34
2023-04-01T07:58:21.078Z,991.32
2023-04-01T07:59:22.078Z,991.32
2023-04-01T08:00:21.099Z,991.31
2023-04-01T08:01:22.025Z,991.38
2023-04-01T08:02:21.224Z,991.29
2023-04-01T08:03:21.182Z,991.41
2023-04-01T08:04:21.404Z,991.46
2023-04-01T08:05:21.232Z,991.41
2023-04-01T08:06:22.528Z,991.46
2023-04-01T08:07:21.021Z,991.46
2023-04-01T08:08:21.012Z,991.48
2023-04-01T08:09:20.985Z,991.41
2023-04-01T08:10:20.957Z,991.48
2023-04-01T08:11:20.970Z,991.51
2023-04-01T08:12:21.946Z,991.51
2023-04-01T08:13:20.957Z,991.46
2023-04-01T08:14:20.961Z,991.49
2023-04-01T08:15:20.916Z,991.57
2023-04-01T08:16:20.934Z,991.56
2023-04-01T08:17:20.933Z,991.55
2023-04-01T08:18:20.876Z,991.58
2023-04-01T08:19:20.992Z,991.54
2023-04-01T08:20:20.858Z,991.55
2023-04-01T08:21:20.831Z,991.64
2023-04-01T08:22:20.852Z,991.59
2023-04-01T08:23:20.839Z,991.65
2023-04-01T08:24:22.578Z,991.62
2023-04-01T08:25:20.860Z,991.66
2023-04-01T08:26:20.772Z,991.64
2023-04-01T08:27:20.771Z,991.69
2023-04-01T08:28:20.764Z,991.68
2023-04-01T08:29:20.730Z,991.67
2023-04-01T08:30:20.754Z,991.81
2023-04-01T08:31:20.770Z,991.79
2023-04-01T08:32:20.713Z,991.71
2023-04-01T08:33:20.708Z,991.79
2023-04-01T08:34:20.727Z,991.74
2023-04-01T08:35:21.650Z,991.80
2023-04-01T08:36:21.533Z,991.78
2023-04-01T08:37:20.651Z,991.84
2023-04-01T08:38:20.645Z,991.83
2023-04-01T08:39:20.647Z,991.87
2023-04-01T08:40:21.610Z,991.89
2023-04-01T08:41:20.646Z,991.82
2023-04-01T08:42:20.649Z,991.90
2023-04-01T08:43:21.014Z,991.93
2023-04-01T08:44:20.593Z,991.91
2023-04-01T08:45:20.555Z,991.93
2023-04-01T08:46:20.591Z,991.89
2023-04-01T08:47:20.589Z,991.91
2023-04-01T08:48:20.591Z,991.95
2023-04-01T08:49:20.526Z,991.99
2023-04-01T08:50:20.542Z,991.94
2023-04-01T08:51:20.503Z,991.90
2023-04-01T08:52:20.548Z,991.97
2023-04-01T08:53:20.505Z,991.97
2023-04-01T08:54:20.472Z,992.05
2023-04-01T08:55:20.465Z,991.98
2023-04-01T08:56:20.459Z,992.01
2023-04-01T08:57:21.426Z,992.00
2023-04-01T08:58:20.447Z,992.00
2023-04-01T08:59:20.453Z,992.02
2023-04-01T09:00:20.401Z,992.07
2023-04-01T09:01:20.380Z,992.06
2023-04-01T09:02:20.467Z,992.05
2023-04-01T09:03:20.412Z,992.08
2023-04-01T09:04:20.381Z,992.03
2023-04-01T09:05:20.349Z,992.17
2023-04-01T09:06:21.556Z,992.12
2023-04-01T09:07:21.277Z,992.12
2023-04-01T09:08:20.327Z,992.10
2023-04-01T09:09:20.364Z,992.09
2023-04-01T09:10:20.307Z,992.14
2023-04-01T09:11:20.561Z,992.20
2023-04-01T09:12:20.458Z,992.19
2023-04-01T09:13:20.251Z,992.20
2023-04-01T09:14:20.289Z,992.25
2023-04-01T09:15:20.273Z,992.21
2023-04-01T09:16:20.361Z,992.20
2023-04-01T09:17:20.323Z,992.21
2023-04-01T09:18:20.998Z,992.22
2023-04-01T09:19:20.178Z,992.22
2023-04-01T09:20:20.244Z,992.22
2023-04-01T09:21:20.179Z,992.22
2023-04-01T09:22:20.169Z,992.20
2023-04-01T09:23:20.146Z,992.20
2023-04-01T09:24:20.230Z,992.27
2023-04-01T09:25:22.149Z,992.28
2023-04-01T09:26:20.121Z,992.33
2023-04-01T09:27:20.310Z,992.33
2023-04-01T09:28:20.080Z,992.35
2023-04-01T09:29:20.073Z,992.36
2023-04-01T09:30:20.147Z,992.36
2023-04-01T09:31:20.075Z,992.34
2023-04-01T09:32:21.559Z,992.35
2023-04-01T09:33:20.062Z,992.40
2023-04-01T09:34:20.032Z,992.37
2023-04-01T09:35:20.056Z,992.45
2023-04-01T09:36:20.054Z,992.39
2023-04-01T09:37:19.990Z,992.44
2023-04-01T09:38:20.046Z,992.41
2023-04-01T09:39:19.975Z,992.46
2023-04-01T09:40:20.023Z,992.48
2023-04-01T09:41:20.225Z,992.46
2023-04-01T09:42:19.946Z,992.43
2023-04-01T09:43:20.893Z,992.51
2023-04-01T09:44:19.987Z,992.50
2023-04-01T09:45:19.904Z,992.50
2023-04-01T09:46:19.954Z,992.46
2023-04-01T09:47:19.885Z,992.54
2023-04-01T09:48:19.887Z,992.45
2023-04-01T09:49:19.872Z,992.54
2023-04-01T09:50:19.857Z,992.54
2023-04-01T09:51:19.851Z,992.49
2023-04-01T09:52:20.685Z,992.55
2023-04-01T09:53:19.817Z,992.53
2023-04-01T09:54:19.823Z,992.60
2023-04-01T09:55:19.816Z,992.54
2023-04-01T09:56:19.990Z,992.56
2023-04-01T09:57:19.826Z,992.61
2023-04-01T09:58:19.763Z,992.65
2023-04-01T09:59:19.774Z,992.65
2023-04-01T10:00:19.861Z,992.69
2023-04-01T10:01:19.773Z,992.62
2023-04-01T10:02:19.836Z,992.59
2023-04-01T10:03:19.750Z,992.69
2023-04-01T10:04:19.711Z,992.69
2023-04-01T10:05:19.733Z,992.69
2023-04-01T10:06:19.671Z,992.65
2023-04-01T10:07:21.140Z,992.68
2023-04-01T10:08:21.101Z,992.64
2023-04-01T10:09:20.653Z,992.73
2023-04-01T10:10:19.764Z,992.70
2023-04-01T10:11:20.528Z,992.72
2023-04-01T10:12:19.659Z,992.69
2023-04-01T10:13:20.148Z,992.75
2023-04-01T10:14:21.069Z,992.76
2023-04-01T10:15:19.799Z,992.75
2023-04-01T10:16:19.733Z,992.79
2023-04-01T10:17:19.598Z,992.79
2023-04-01T10:18:19.548Z,992.77
2023-04-01T10:19:21.021Z,992.76
2023-04-01T10:20:19.580Z,992.78
2023-04-01T10:21:19.582Z,992.82
2023-04-01T10:22:19.499Z,992.86
2023-04-01T10:23:19.818Z,992.84
2023-04-01T10:24:20.215Z,992.86
2023-04-01T10:25:19.462Z,992.90
2023-04-01T10:26:19.504Z,992.87
2023-04-01T10:27:19.434Z,992.91
2023-04-01T10:28:20.001Z,992.94
2023-04-01T10:29:19.421Z,992.88
2023-04-01T10:30:19.505Z,992.87
2023-04-01T10:31:19.449Z,992.93
2023-04-01T10:32:20.891Z,992.95
2023-04-01T10:33:19.386Z,992.98
2023-04-01T10:34:19.377Z,992.96
2023-04-01T10:35:19.333Z,993.00
2023-04-01T10:36:19.354Z,992.93
2023-04-01T10:37:19.382Z,993.02
2023-04-01T10:38:19.422Z,993.10
2023-04-01T10:39:19.332Z,993.02
2023-04-01T10:40:19.297Z,993.03
2023-04-01T10:41:19.281Z,993.01
2023-04-01T10:42:20.114Z,993.06
2023-04-01T10:43:19.347Z,992.96
2023-04-01T10:44:20.097Z,993.03
2023-04-01T10:45:19.276Z,993.04
2023-04-01T10:46:19.336Z,992.97
2023-04-01T10:47:19.272Z,993.09
2023-04-01T10:48:19.262Z,993.08
2023-04-01T10:49:19.284Z,993.04
2023-04-01T10:50:21.649Z,993.08
2023-04-01T10:51:19.280Z,993.08
2023-04-01T10:52:19.161Z,993.05
2023-04-01T10:53:19.160Z,993.06
2023-04-01T10:54:19.135Z,993.10
2023-04-01T10:55:20.577Z,993.13
2023-04-01T10:56:19.105Z,993.13
2023-04-01T10:57:19.139Z,993.08
2023-04-01T10:58:19.113Z,993.11
2023-04-01T10:59:19.145Z,993.13
2023-04-01T11:00:19.094Z,993.12
2023-04-01T11:01:19.121Z,993.12
2023-04-01T11:02:20.545Z,993.18
2023-04-01T11:03:19.110Z,993.14
2023-04-01T11:04:19.042Z,993.22
2023-04-01T11:05:20.894Z,993.19
2023-04-01T11:06:20.490Z,993.18
2023-04-01T11:07:18.985Z,993.19
2023-04-01T11:08:19.158Z,993.21
2023-04-01T11:09:20.418Z,993.20
2023-04-01T11:10:18.950Z,993.22
2023-04-01T11:11:19.790Z,993.24
2023-04-01T11:12:18.985Z,993.25
2023-04-01T11:13:18.922Z,993.25
2023-04-01T11:14:19.056Z,993.27
2023-04-01T11:15:19.119Z,993.24
2023-04-01T11:16:19.731Z,993.26
2023-04-01T11:17:18.887Z,993.28
2023-04-01T11:18:18.929Z,993.20
2023-04-01T11:19:19.710Z,993.26
2023-04-01T11:20:19.089Z,993.33
2023-04-01T11:21:18.829Z,993.31
2023-04-01T11:22:18.840Z,993.36
2023-04-01T11:23:18.824Z,993.33
2023-04-01T11:24:18.813Z,993.34
2023-04-01T11:25:18.798Z,993.41
2023-04-01T11:26:18.803Z,993.38
2023-04-01T11:27:18.834Z,993.31
2023-04-01T11:28:18.862Z,993.33
2023-04-01T11:29:18.770Z,993.33
2023-04-01T11:30:19.093Z,993.41
2023-04-01T11:31:18.765Z,993.39
2023-04-01T11:32:18.697Z,993.33
2023-04-01T11:33:20.709Z,993.35
2023-04-01T11:34:18.683Z,993.39
2023-04-01T11:35:18.656Z,993.44
2023-04-01T11:36:18.739Z,993.41
2023-04-01T11:37:18.631Z,993.42
2023-04-01T11:38:18.635Z,993.48
2023-04-01T11:39:18.626Z,993.50
2023-04-01T11:40:18.622Z,993.45
2023-04-01T11:41:18.635Z,993.44
2023-04-01T11:42:18.645Z,993.54
2023-04-01T11:43:33.133Z,993.50
2023-04-01T11:44:25.734Z,993.53
2023-04-01T11:45:19.527Z,993.56
2023-04-01T11:46:18.584Z,993.51
2023-04-01T11:47:19.503Z,993.58
2023-04-01T11:48:18.578Z,993.54
2023-04-01T11:49:18.501Z,993.49
2023-04-01T11:50:18.729Z,993.53
2023-04-01T11:51:18.491Z,993.63
2023-04-01T11:52:19.995Z,993.64
2023-04-01T11:53:18.499Z,993.77
2023-04-01T11:54:18.479Z,993.76
2023-04-01T11:55:18.575Z,993.72
2023-04-01T11:56:18.449Z,993.69
2023-04-01T11:57:18.513Z,993.72
2023-04-01T11:58:18.478Z,993.77
2023-04-01T11:59:18.398Z,993.70
2023-04-01T12:00:18.400Z,993.75
2023-04-01T12:01:18.412Z,993.71
2023-04-01T12:02:21.070Z,993.80
2023-04-01T12:03:18.520Z,993.80
2023-04-01T12:04:18.548Z,993.84
2023-04-01T12:05:18.345Z,993.86
2023-04-01T12:06:18.345Z,993.86
2023-04-01T12:07:18.352Z,993.90
2023-04-01T12:08:18.318Z,993.92
2023-04-01T12:09:18.286Z,993.88
2023-04-01T12:10:18.306Z,993.84
2023-04-01T12:11:18.279Z,993.88
2023-04-01T12:12:18.320Z,993.89
2023-04-01T12:13:18.265Z,993.95
2023-04-01T12:14:18.243Z,993.89
2023-04-01T12:15:19.768Z,993.95
2023-04-01T12:16:18.250Z,993.98
2023-04-01T12:17:18.307Z,993.99
2023-04-01T12:18:19.215Z,994.00
2023-04-01T12:19:18.204Z,993.95
2023-04-01T12:20:18.179Z,993.98
2023-04-01T12:21:18.166Z,993.99
2023-04-01T12:22:18.183Z,994.03
2023-04-01T12:23:18.121Z,994.04
2023-04-01T12:24:18.158Z,994.10
2023-04-01T12:25:18.106Z,994.06
2023-04-01T12:26:18.107Z,994.03
2023-04-01T12:27:18.102Z,994.09
2023-04-01T12:28:18.107Z,994.08